sensor_id;sensor_type;location;lat;lon;timestamp;P1;durP1;ratioP1;P2;durP2;ratioP2
72584;SDS011;60618;40.084;32.908;2022-09-09T00:04:39;5.65;;;1.70;;
72584;SDS011;60618;40.084;32.908;2022-09-09T00:09:53;5.67;;;1.90;;
72584;SDS011;60618;40.084;32.908;2022-09-09T00:12:37;5.68;;;1.70;;
72584;SDS011;60618;40.084;32.908;2022-09-09T00:15:12;3.85;;;1.65;;
72584;SDS011;60618;40.084;32.908;2022-09-09T00:20:31;3.72;;;1.70;;
72584;SDS011;60618;40.084;32.908;2022-09-09T00:23:10;5.80;;;1.90;;
72584;SDS011;60618;40.084;32.908;2022-09-09T00:25:47;6.10;;;1.92;;
72584;SDS011;60618;40.084;32.908;2022-09-09T00:28:24;5.05;;;1.73;;
72584;SDS011;60618;40.084;32.908;2022-09-09T00:30:53;6.28;;;1.80;;
72584;SDS011;60618;40.084;32.908;2022-09-09T00:33:24;3.75;;;1.70;;
72584;SDS011;60618;40.084;32.908;2022-09-09T00:35:54;5.40;;;1.70;;
72584;SDS011;60618;40.084;32.908;2022-09-09T00:38:34;3.72;;;1.60;;
72584;SDS011;60618;40.084;32.908;2022-09-09T00:41:14;4.40;;;1.80;;
72584;SDS011;60618;40.084;32.908;2022-09-09T01:00:16;4.22;;;1.90;;
72584;SDS011;60618;40.084;32.908;2022-09-09T01:11:05;7.75;;;2.20;;
72584;SDS011;60618;40.084;32.908;2022-09-09T01:13:38;6.13;;;2.10;;
72584;SDS011;60618;40.084;32.908;2022-09-09T01:16:09;7.83;;;2.10;;
72584;SDS011;60618;40.084;32.908;2022-09-09T01:18:43;7.75;;;2.40;;
72584;SDS011;60618;40.084;32.908;2022-09-09T01:21:33;7.20;;;2.33;;
72584;SDS011;60618;40.084;32.908;2022-09-09T01:27:02;4.85;;;1.83;;
72584;SDS011;60618;40.084;32.908;2022-09-09T01:29:32;4.70;;;2.07;;
72584;SDS011;60618;40.084;32.908;2022-09-09T01:32:00;6.18;;;1.92;;
72584;SDS011;60618;40.084;32.908;2022-09-09T01:34:47;5.93;;;1.80;;
72584;SDS011;60618;40.084;32.908;2022-09-09T01:37:14;3.58;;;1.70;;
72584;SDS011;60618;40.084;32.908;2022-09-09T01:39:41;3.88;;;1.95;;
72584;SDS011;60618;40.084;32.908;2022-09-09T01:42:12;4.10;;;1.80;;
72584;SDS011;60618;40.084;32.908;2022-09-09T01:44:41;4.22;;;1.80;;
72584;SDS011;60618;40.084;32.908;2022-09-09T01:47:08;5.43;;;2.08;;
72584;SDS011;60618;40.084;32.908;2022-09-09T01:49:35;4.18;;;1.73;;
72584;SDS011;60618;40.084;32.908;2022-09-09T01:52:02;5.25;;;2.03;;
72584;SDS011;60618;40.084;32.908;2022-09-09T01:54:30;4.33;;;2.10;;
72584;SDS011;60618;40.084;32.908;2022-09-09T02:02:24;4.22;;;2.10;;
72584;SDS011;60618;40.084;32.908;2022-09-09T02:05:00;4.97;;;1.90;;
72584;SDS011;60618;40.084;32.908;2022-09-09T02:07:39;5.70;;;2.30;;
72584;SDS011;60618;40.084;32.908;2022-09-09T02:10:09;4.25;;;2.05;;
72584;SDS011;60618;40.084;32.908;2022-09-09T02:12:51;3.95;;;1.90;;
72584;SDS011;60618;40.084;32.908;2022-09-09T02:15:24;5.45;;;2.05;;
72584;SDS011;60618;40.084;32.908;2022-09-09T02:17:57;5.60;;;2.08;;
72584;SDS011;60618;40.084;32.908;2022-09-09T02:20:24;4.13;;;2.00;;
72584;SDS011;60618;40.084;32.908;2022-09-09T02:22:58;4.38;;;1.88;;
72584;SDS011;60618;40.084;32.908;2022-09-09T02:25:26;5.20;;;2.10;;
72584;SDS011;60618;40.084;32.908;2022-09-09T02:27:55;4.13;;;2.10;;
72584;SDS011;60618;40.084;32.908;2022-09-09T02:30:23;3.90;;;2.00;;
72584;SDS011;60618;40.084;32.908;2022-09-09T02:32:50;5.00;;;2.00;;
72584;SDS011;60618;40.084;32.908;2022-09-09T02:35:21;5.47;;;2.10;;
72584;SDS011;60618;40.084;32.908;2022-09-09T02:37:50;4.68;;;2.08;;
72584;SDS011;60618;40.084;32.908;2022-09-09T02:40:20;4.00;;;1.90;;
72584;SDS011;60618;40.084;32.908;2022-09-09T02:42:47;4.30;;;2.20;;
72584;SDS011;60618;40.084;32.908;2022-09-09T02:45:16;4.73;;;1.90;;
72584;SDS011;60618;40.084;32.908;2022-09-09T02:47:52;4.82;;;2.15;;
72584;SDS011;60618;40.084;32.908;2022-09-09T02:50:40;3.70;;;1.90;;
72584;SDS011;60618;40.084;32.908;2022-09-09T02:53:24;3.90;;;2.00;;
72584;SDS011;60618;40.084;32.908;2022-09-09T02:56:18;4.78;;;2.05;;
72584;SDS011;60618;40.084;32.908;2022-09-09T02:58:48;4.67;;;2.20;;
72584;SDS011;60618;40.084;32.908;2022-09-09T03:01:15;3.83;;;1.80;;
72584;SDS011;60618;40.084;32.908;2022-09-09T03:03:42;5.25;;;2.20;;
72584;SDS011;60618;40.084;32.908;2022-09-09T03:06:09;4.50;;;2.03;;
72584;SDS011;60618;40.084;32.908;2022-09-09T03:08:36;4.35;;;2.03;;
72584;SDS011;60618;40.084;32.908;2022-09-09T03:11:03;4.77;;;2.30;;
72584;SDS011;60618;40.084;32.908;2022-09-09T03:13:30;6.07;;;2.03;;
72584;SDS011;60618;40.084;32.908;2022-09-09T03:15:57;4.80;;;2.20;;
72584;SDS011;60618;40.084;32.908;2022-09-09T03:18:24;4.90;;;2.22;;
72584;SDS011;60618;40.084;32.908;2022-09-09T03:20:51;4.22;;;2.10;;
72584;SDS011;60618;40.084;32.908;2022-09-09T03:23:18;5.60;;;2.30;;
72584;SDS011;60618;40.084;32.908;2022-09-09T03:25:48;3.70;;;1.85;;
72584;SDS011;60618;40.084;32.908;2022-09-09T03:28:18;5.00;;;2.38;;
72584;SDS011;60618;40.084;32.908;2022-09-09T03:30:45;5.07;;;2.10;;
72584;SDS011;60618;40.084;32.908;2022-09-09T03:33:12;5.82;;;2.25;;
72584;SDS011;60618;40.084;32.908;2022-09-09T03:35:38;5.23;;;2.00;;
72584;SDS011;60618;40.084;32.908;2022-09-09T03:38:05;4.72;;;2.10;;
72584;SDS011;60618;40.084;32.908;2022-09-09T03:40:32;5.75;;;2.40;;
72584;SDS011;60618;40.084;32.908;2022-09-09T03:42:59;4.55;;;2.20;;
72584;SDS011;60618;40.084;32.908;2022-09-09T03:45:26;4.03;;;2.10;;
72584;SDS011;60618;40.084;32.908;2022-09-09T03:47:53;4.93;;;2.20;;
72584;SDS011;60618;40.084;32.908;2022-09-09T03:50:20;5.82;;;2.13;;
72584;SDS011;60618;40.084;32.908;2022-09-09T03:52:46;4.50;;;2.15;;
72584;SDS011;60618;40.084;32.908;2022-09-09T03:55:13;5.30;;;2.13;;
72584;SDS011;60618;40.084;32.908;2022-09-09T03:57:40;5.47;;;2.38;;
72584;SDS011;60618;40.084;32.908;2022-09-09T04:00:07;5.70;;;2.20;;
72584;SDS011;60618;40.084;32.908;2022-09-09T04:02:34;4.03;;;2.10;;
72584;SDS011;60618;40.084;32.908;2022-09-09T04:05:01;3.95;;;2.00;;
72584;SDS011;60618;40.084;32.908;2022-09-09T04:07:28;5.78;;;2.55;;
72584;SDS011;60618;40.084;32.908;2022-09-09T04:09:55;4.65;;;2.58;;
72584;SDS011;60618;40.084;32.908;2022-09-09T04:12:22;6.57;;;2.37;;
72584;SDS011;60618;40.084;32.908;2022-09-09T04:14:49;4.93;;;2.42;;
72584;SDS011;60618;40.084;32.908;2022-09-09T04:17:15;4.78;;;2.08;;
72584;SDS011;60618;40.084;32.908;2022-09-09T04:19:42;5.40;;;2.20;;
72584;SDS011;60618;40.084;32.908;2022-09-09T04:22:09;4.07;;;2.20;;
72584;SDS011;60618;40.084;32.908;2022-09-09T04:24:36;3.80;;;2.00;;
72584;SDS011;60618;40.084;32.908;2022-09-09T04:27:03;3.92;;;2.03;;
72584;SDS011;60618;40.084;32.908;2022-09-09T04:29:29;4.63;;;2.00;;
72584;SDS011;60618;40.084;32.908;2022-09-09T04:31:56;4.95;;;2.00;;
72584;SDS011;60618;40.084;32.908;2022-09-09T04:34:23;5.40;;;2.10;;
72584;SDS011;60618;40.084;32.908;2022-09-09T04:36:50;3.80;;;2.00;;
72584;SDS011;60618;40.084;32.908;2022-09-09T04:39:16;5.65;;;2.20;;
72584;SDS011;60618;40.084;32.908;2022-09-09T04:41:44;4.28;;;2.15;;
72584;SDS011;60618;40.084;32.908;2022-09-09T04:44:10;4.50;;;2.15;;
72584;SDS011;60618;40.084;32.908;2022-09-09T04:46:37;4.00;;;2.00;;
72584;SDS011;60618;40.084;32.908;2022-09-09T04:49:04;4.00;;;1.90;;
72584;SDS011;60618;40.084;32.908;2022-09-09T04:51:31;4.70;;;2.10;;
72584;SDS011;60618;40.084;32.908;2022-09-09T04:53:58;4.43;;;1.90;;
72584;SDS011;60618;40.084;32.908;2022-09-09T04:56:25;3.92;;;1.90;;
72584;SDS011;60618;40.084;32.908;2022-09-09T04:58:51;4.07;;;2.08;;
72584;SDS011;60618;40.084;32.908;2022-09-09T05:01:19;5.40;;;2.10;;
72584;SDS011;60618;40.084;32.908;2022-09-09T05:03:47;4.20;;;2.30;;
72584;SDS011;60618;40.084;32.908;2022-09-09T05:06:15;3.85;;;1.90;;
72584;SDS011;60618;40.084;32.908;2022-09-09T05:08:44;4.85;;;2.10;;
72584;SDS011;60618;40.084;32.908;2022-09-09T05:11:27;4.40;;;2.30;;
72584;SDS011;60618;40.084;32.908;2022-09-09T05:13:55;6.40;;;2.13;;
72584;SDS011;60618;40.084;32.908;2022-09-09T05:16:22;6.65;;;2.35;;
72584;SDS011;60618;40.084;32.908;2022-09-09T05:18:50;6.30;;;2.40;;
72584;SDS011;60618;40.084;32.908;2022-09-09T05:21:17;5.00;;;2.00;;
72584;SDS011;60618;40.084;32.908;2022-09-09T05:23:46;6.30;;;2.30;;
72584;SDS011;60618;40.084;32.908;2022-09-09T05:26:14;6.67;;;2.00;;
72584;SDS011;60618;40.084;32.908;2022-09-09T05:28:43;6.13;;;2.03;;
72584;SDS011;60618;40.084;32.908;2022-09-09T05:31:11;4.60;;;2.30;;
72584;SDS011;60618;40.084;32.908;2022-09-09T05:33:43;4.60;;;2.00;;
72584;SDS011;60618;40.084;32.908;2022-09-09T05:36:11;5.13;;;2.10;;
72584;SDS011;60618;40.084;32.908;2022-09-09T05:38:40;5.43;;;2.30;;
72584;SDS011;60618;40.084;32.908;2022-09-09T05:41:07;5.05;;;2.00;;
72584;SDS011;60618;40.084;32.908;2022-09-09T05:43:35;5.72;;;2.25;;
72584;SDS011;60618;40.084;32.908;2022-09-09T05:46:06;5.43;;;2.20;;
72584;SDS011;60618;40.084;32.908;2022-09-09T05:48:34;4.78;;;2.00;;
72584;SDS011;60618;40.084;32.908;2022-09-09T05:51:03;4.90;;;2.33;;
72584;SDS011;60618;40.084;32.908;2022-09-09T05:53:30;6.47;;;2.10;;
72584;SDS011;60618;40.084;32.908;2022-09-09T05:55:58;3.85;;;2.00;;
72584;SDS011;60618;40.084;32.908;2022-09-09T05:58:26;4.38;;;2.13;;
72584;SDS011;60618;40.084;32.908;2022-09-09T06:00:53;4.95;;;1.98;;
72584;SDS011;60618;40.084;32.908;2022-09-09T06:03:28;4.93;;;1.90;;
72584;SDS011;60618;40.084;32.908;2022-09-09T06:06:03;3.60;;;1.90;;
72584;SDS011;60618;40.084;32.908;2022-09-09T06:08:32;4.32;;;1.90;;
72584;SDS011;60618;40.084;32.908;2022-09-09T06:11:04;4.05;;;2.08;;
72584;SDS011;60618;40.084;32.908;2022-09-09T06:13:32;4.22;;;2.10;;
72584;SDS011;60618;40.084;32.908;2022-09-09T06:15:59;4.53;;;2.10;;
72584;SDS011;60618;40.084;32.908;2022-09-09T06:18:26;4.22;;;2.00;;
72584;SDS011;60618;40.084;32.908;2022-09-09T06:21:00;5.15;;;2.15;;
72584;SDS011;60618;40.084;32.908;2022-09-09T06:23:28;5.32;;;2.40;;
72584;SDS011;60618;40.084;32.908;2022-09-09T06:26:29;4.95;;;2.40;;
72584;SDS011;60618;40.084;32.908;2022-09-09T06:28:50;5.40;;;2.20;;
72584;SDS011;60618;40.084;32.908;2022-09-09T06:31:18;5.38;;;2.10;;
72584;SDS011;60618;40.084;32.908;2022-09-09T06:33:47;4.57;;;2.10;;
72584;SDS011;60618;40.084;32.908;2022-09-09T06:36:18;4.53;;;2.10;;
72584;SDS011;60618;40.084;32.908;2022-09-09T06:38:47;4.95;;;2.33;;
72584;SDS011;60618;40.084;32.908;2022-09-09T06:41:15;5.37;;;2.20;;
72584;SDS011;60618;40.084;32.908;2022-09-09T06:43:44;4.68;;;2.30;;
72584;SDS011;60618;40.084;32.908;2022-09-09T06:46:16;5.57;;;2.20;;
72584;SDS011;60618;40.084;32.908;2022-09-09T06:48:45;5.00;;;2.03;;
72584;SDS011;60618;40.084;32.908;2022-09-09T06:51:13;4.80;;;2.00;;
72584;SDS011;60618;40.084;32.908;2022-09-09T06:53:47;4.70;;;2.20;;
72584;SDS011;60618;40.084;32.908;2022-09-09T06:56:26;3.78;;;1.80;;
72584;SDS011;60618;40.084;32.908;2022-09-09T06:58:59;4.25;;;2.13;;
72584;SDS011;60618;40.084;32.908;2022-09-09T07:01:28;4.30;;;2.00;;
72584;SDS011;60618;40.084;32.908;2022-09-09T07:03:56;4.03;;;2.03;;
72584;SDS011;60618;40.084;32.908;2022-09-09T07:06:25;4.30;;;1.77;;
72584;SDS011;60618;40.084;32.908;2022-09-09T07:08:57;4.00;;;2.13;;
72584;SDS011;60618;40.084;32.908;2022-09-09T07:11:33;7.78;;;2.22;;
72584;SDS011;60618;40.084;32.908;2022-09-09T07:14:03;5.22;;;2.05;;
72584;SDS011;60618;40.084;32.908;2022-09-09T07:16:30;5.40;;;2.20;;
72584;SDS011;60618;40.084;32.908;2022-09-09T07:18:57;5.00;;;2.17;;
72584;SDS011;60618;40.084;32.908;2022-09-09T07:21:25;5.53;;;1.90;;
72584;SDS011;60618;40.084;32.908;2022-09-09T07:23:53;4.97;;;2.10;;
72584;SDS011;60618;40.084;32.908;2022-09-09T07:26:21;5.68;;;2.42;;
72584;SDS011;60618;40.084;32.908;2022-09-09T07:28:50;4.28;;;2.17;;
72584;SDS011;60618;40.084;32.908;2022-09-09T07:31:28;4.67;;;2.27;;
72584;SDS011;60618;40.084;32.908;2022-09-09T07:33:57;5.35;;;2.20;;
72584;SDS011;60618;40.084;32.908;2022-09-09T07:36:32;4.82;;;2.20;;
72584;SDS011;60618;40.084;32.908;2022-09-09T07:39:05;4.35;;;2.10;;
72584;SDS011;60618;40.084;32.908;2022-09-09T07:41:39;4.50;;;2.30;;
72584;SDS011;60618;40.084;32.908;2022-09-09T07:44:16;5.53;;;2.00;;
72584;SDS011;60618;40.084;32.908;2022-09-09T07:46:47;3.92;;;1.80;;
72584;SDS011;60618;40.084;32.908;2022-09-09T07:49:14;4.45;;;2.00;;
72584;SDS011;60618;40.084;32.908;2022-09-09T07:51:43;4.20;;;2.03;;
72584;SDS011;60618;40.084;32.908;2022-09-09T07:54:12;3.88;;;1.92;;
72584;SDS011;60618;40.084;32.908;2022-09-09T07:56:40;5.57;;;2.13;;
72584;SDS011;60618;40.084;32.908;2022-09-09T07:59:08;4.70;;;2.00;;
72584;SDS011;60618;40.084;32.908;2022-09-09T08:01:38;4.93;;;2.00;;
72584;SDS011;60618;40.084;32.908;2022-09-09T08:04:10;4.28;;;2.25;;
72584;SDS011;60618;40.084;32.908;2022-09-09T08:06:40;3.88;;;1.90;;
72584;SDS011;60618;40.084;32.908;2022-09-09T08:09:08;3.73;;;1.97;;
72584;SDS011;60618;40.084;32.908;2022-09-09T08:11:37;4.65;;;2.10;;
72584;SDS011;60618;40.084;32.908;2022-09-09T08:14:06;4.28;;;1.95;;
72584;SDS011;60618;40.084;32.908;2022-09-09T08:16:35;4.35;;;2.10;;
72584;SDS011;60618;40.084;32.908;2022-09-09T08:19:04;4.20;;;2.00;;
72584;SDS011;60618;40.084;32.908;2022-09-09T08:21:31;4.77;;;2.00;;
72584;SDS011;60618;40.084;32.908;2022-09-09T08:23:59;4.88;;;2.00;;
72584;SDS011;60618;40.084;32.908;2022-09-09T08:26:31;4.75;;;2.20;;
72584;SDS011;60618;40.084;32.908;2022-09-09T08:29:01;4.10;;;2.20;;
72584;SDS011;60618;40.084;32.908;2022-09-09T08:31:34;4.28;;;2.00;;
72584;SDS011;60618;40.084;32.908;2022-09-09T08:34:02;4.03;;;1.90;;
72584;SDS011;60618;40.084;32.908;2022-09-09T08:36:32;5.53;;;1.85;;
72584;SDS011;60618;40.084;32.908;2022-09-09T08:39:04;5.07;;;1.90;;
72584;SDS011;60618;40.084;32.908;2022-09-09T08:47:11;3.83;;;1.87;;
72584;SDS011;60618;40.084;32.908;2022-09-09T08:49:48;3.88;;;2.10;;
72584;SDS011;60618;40.084;32.908;2022-09-09T08:52:39;4.20;;;1.83;;
72584;SDS011;60618;40.084;32.908;2022-09-09T08:58:31;4.28;;;1.95;;
72584;SDS011;60618;40.084;32.908;2022-09-09T09:03:48;4.35;;;2.40;;
72584;SDS011;60618;40.084;32.908;2022-09-09T09:11:40;4.10;;;2.20;;
72584;SDS011;60618;40.084;32.908;2022-09-09T09:14:21;4.20;;;2.10;;
72584;SDS011;60618;40.084;32.908;2022-09-09T09:19:23;5.28;;;2.80;;
72584;SDS011;60618;40.084;32.908;2022-09-09T09:27:32;5.27;;;2.90;;
72584;SDS011;60618;40.084;32.908;2022-09-09T09:30:10;6.25;;;2.90;;
72584;SDS011;60618;40.084;32.908;2022-09-09T09:35:27;5.35;;;2.70;;
72584;SDS011;60618;40.084;32.908;2022-09-09T09:37:54;4.60;;;2.75;;
72584;SDS011;60618;40.084;32.908;2022-09-09T09:40:54;6.03;;;2.80;;
72584;SDS011;60618;40.084;32.908;2022-09-09T09:43:32;4.55;;;2.70;;
72584;SDS011;60618;40.084;32.908;2022-09-09T09:46:03;4.75;;;2.85;;
72584;SDS011;60618;40.084;32.908;2022-09-09T09:48:43;4.88;;;2.63;;
72584;SDS011;60618;40.084;32.908;2022-09-09T09:51:10;6.05;;;2.60;;
72584;SDS011;60618;40.084;32.908;2022-09-09T09:53:40;4.07;;;2.37;;
72584;SDS011;60618;40.084;32.908;2022-09-09T09:56:09;4.82;;;2.50;;
72584;SDS011;60618;40.084;32.908;2022-09-09T10:01:04;4.60;;;2.60;;
72584;SDS011;60618;40.084;32.908;2022-09-09T10:03:32;5.55;;;2.70;;
72584;SDS011;60618;40.084;32.908;2022-09-09T10:06:02;5.17;;;2.50;;
72584;SDS011;60618;40.084;32.908;2022-09-09T10:08:29;4.70;;;2.45;;
72584;SDS011;60618;40.084;32.908;2022-09-09T10:16:37;5.47;;;2.78;;
72584;SDS011;60618;40.084;32.908;2022-09-09T10:19:15;4.70;;;2.20;;
72584;SDS011;60618;40.084;32.908;2022-09-09T10:24:33;5.35;;;2.70;;
72584;SDS011;60618;40.084;32.908;2022-09-09T10:37:46;4.80;;;2.30;;
72584;SDS011;60618;40.084;32.908;2022-09-09T10:51:53;3.92;;;2.28;;
72584;SDS011;60618;40.084;32.908;2022-09-09T10:59:53;5.27;;;2.23;;
72584;SDS011;60618;40.084;32.908;2022-09-09T11:02:28;4.85;;;2.47;;
72584;SDS011;60618;40.084;32.908;2022-09-09T11:07:44;4.53;;;2.25;;
72584;SDS011;60618;40.084;32.908;2022-09-09T11:12:50;5.90;;;2.00;;
72584;SDS011;60618;40.084;32.908;2022-09-09T11:15:23;5.50;;;2.30;;
72584;SDS011;60618;40.084;32.908;2022-09-09T11:17:58;4.32;;;2.00;;
72584;SDS011;60618;40.084;32.908;2022-09-09T11:20:28;5.20;;;2.40;;
72584;SDS011;60618;40.084;32.908;2022-09-09T11:23:05;6.05;;;2.25;;
72584;SDS011;60618;40.084;32.908;2022-09-09T11:25:40;4.63;;;2.00;;
72584;SDS011;60618;40.084;32.908;2022-09-09T11:36:50;4.80;;;2.33;;
72584;SDS011;60618;40.084;32.908;2022-09-09T11:39:34;5.60;;;2.40;;
72584;SDS011;60618;40.084;32.908;2022-09-09T11:42:23;4.88;;;2.30;;
72584;SDS011;60618;40.084;32.908;2022-09-09T11:44:50;4.65;;;2.50;;
72584;SDS011;60618;40.084;32.908;2022-09-09T11:47:24;5.55;;;2.25;;
72584;SDS011;60618;40.084;32.908;2022-09-09T11:50:40;4.32;;;2.20;;
72584;SDS011;60618;40.084;32.908;2022-09-09T11:52:43;4.60;;;2.40;;
72584;SDS011;60618;40.084;32.908;2022-09-09T11:57:56;4.72;;;2.58;;
72584;SDS011;60618;40.084;32.908;2022-09-09T12:00:44;5.03;;;2.50;;
72584;SDS011;60618;40.084;32.908;2022-09-09T12:06:28;4.77;;;2.40;;
72584;SDS011;60618;40.084;32.908;2022-09-09T12:09:22;5.15;;;2.55;;
72584;SDS011;60618;40.084;32.908;2022-09-09T12:12:04;6.53;;;2.42;;
72584;SDS011;60618;40.084;32.908;2022-09-09T12:14:38;4.93;;;2.40;;
72584;SDS011;60618;40.084;32.908;2022-09-09T12:19:59;7.20;;;2.90;;
72584;SDS011;60618;40.084;32.908;2022-09-09T12:25:18;4.45;;;2.60;;
72584;SDS011;60618;40.084;32.908;2022-09-09T12:28:09;6.63;;;2.60;;
72584;SDS011;60618;40.084;32.908;2022-09-09T12:33:44;6.37;;;2.70;;
72584;SDS011;60618;40.084;32.908;2022-09-09T12:36:13;4.78;;;2.80;;
72584;SDS011;60618;40.084;32.908;2022-09-09T12:38:43;5.47;;;2.67;;
72584;SDS011;60618;40.084;32.908;2022-09-09T12:41:21;5.72;;;2.70;;
72584;SDS011;60618;40.084;32.908;2022-09-09T12:43:49;8.40;;;3.08;;
72584;SDS011;60618;40.084;32.908;2022-09-09T12:46:22;6.00;;;3.13;;
72584;SDS011;60618;40.084;32.908;2022-09-09T12:48:59;5.78;;;3.20;;
72584;SDS011;60618;40.084;32.908;2022-09-09T12:51:27;8.20;;;3.20;;
72584;SDS011;60618;40.084;32.908;2022-09-09T12:53:56;7.15;;;3.20;;
72584;SDS011;60618;40.084;32.908;2022-09-09T12:56:26;6.72;;;2.90;;
72584;SDS011;60618;40.084;32.908;2022-09-09T12:58:56;6.37;;;3.20;;
72584;SDS011;60618;40.084;32.908;2022-09-09T13:01:28;7.20;;;3.28;;
72584;SDS011;60618;40.084;32.908;2022-09-09T13:03:57;7.00;;;3.20;;
72584;SDS011;60618;40.084;32.908;2022-09-09T13:08:55;6.25;;;2.97;;
72584;SDS011;60618;40.084;32.908;2022-09-09T13:11:29;5.20;;;3.10;;
72584;SDS011;60618;40.084;32.908;2022-09-09T13:14:02;5.85;;;3.08;;
72584;SDS011;60618;40.084;32.908;2022-09-09T13:16:30;5.90;;;3.33;;
72584;SDS011;60618;40.084;32.908;2022-09-09T13:19:14;6.32;;;3.25;;
72584;SDS011;60618;40.084;32.908;2022-09-09T13:21:43;5.32;;;3.00;;
72584;SDS011;60618;40.084;32.908;2022-09-09T13:26:55;6.78;;;2.88;;
72584;SDS011;60618;40.084;32.908;2022-09-09T13:29:27;6.30;;;2.83;;
72584;SDS011;60618;40.084;32.908;2022-09-09T13:32:03;5.95;;;2.90;;
72584;SDS011;60618;40.084;32.908;2022-09-09T13:34:32;6.55;;;3.00;;
72584;SDS011;60618;40.084;32.908;2022-09-09T13:37:06;5.00;;;2.60;;
72584;SDS011;60618;40.084;32.908;2022-09-09T13:39:52;6.32;;;3.00;;
72584;SDS011;60618;40.084;32.908;2022-09-09T13:42:27;5.15;;;2.80;;
72584;SDS011;60618;40.084;32.908;2022-09-09T13:44:56;5.25;;;3.10;;
72584;SDS011;60618;40.084;32.908;2022-09-09T13:47:29;5.53;;;3.20;;
72584;SDS011;60618;40.084;32.908;2022-09-09T13:50:09;5.80;;;2.50;;
72584;SDS011;60618;40.084;32.908;2022-09-09T13:52:44;5.68;;;2.92;;
72584;SDS011;60618;40.084;32.908;2022-09-09T13:55:11;4.85;;;2.80;;
72584;SDS011;60618;40.084;32.908;2022-09-09T13:57:38;6.68;;;2.80;;
72584;SDS011;60618;40.084;32.908;2022-09-09T14:00:05;6.00;;;2.90;;
72584;SDS011;60618;40.084;32.908;2022-09-09T14:02:33;5.57;;;2.80;;
72584;SDS011;60618;40.084;32.908;2022-09-09T14:05:00;6.47;;;3.10;;
72584;SDS011;60618;40.084;32.908;2022-09-09T14:07:27;5.18;;;3.03;;
72584;SDS011;60618;40.084;32.908;2022-09-09T14:09:54;5.35;;;2.92;;
72584;SDS011;60618;40.084;32.908;2022-09-09T14:12:21;6.03;;;2.97;;
72584;SDS011;60618;40.084;32.908;2022-09-09T14:14:47;5.20;;;2.90;;
72584;SDS011;60618;40.084;32.908;2022-09-09T14:17:16;4.90;;;2.67;;
72584;SDS011;60618;40.084;32.908;2022-09-09T14:19:43;6.50;;;2.50;;
72584;SDS011;60618;40.084;32.908;2022-09-09T14:22:10;5.53;;;2.75;;
72584;SDS011;60618;40.084;32.908;2022-09-09T14:24:37;5.65;;;2.95;;
72584;SDS011;60618;40.084;32.908;2022-09-09T14:27:04;7.80;;;2.90;;
72584;SDS011;60618;40.084;32.908;2022-09-09T14:29:31;4.90;;;3.00;;
72584;SDS011;60618;40.084;32.908;2022-09-09T15:01:22;7.22;;;3.08;;
72584;SDS011;60618;40.084;32.908;2022-09-09T15:03:51;6.45;;;3.20;;
72584;SDS011;60618;40.084;32.908;2022-09-09T15:06:19;6.83;;;3.20;;
72584;SDS011;60618;40.084;32.908;2022-09-09T15:08:47;7.28;;;3.10;;
72584;SDS011;60618;40.084;32.908;2022-09-09T15:11:14;5.13;;;2.70;;
72584;SDS011;60618;40.084;32.908;2022-09-09T15:13:41;6.68;;;3.00;;
72584;SDS011;60618;40.084;32.908;2022-09-09T15:16:13;7.25;;;3.17;;
72584;SDS011;60618;40.084;32.908;2022-09-09T15:18:45;4.83;;;2.80;;
72584;SDS011;60618;40.084;32.908;2022-09-09T15:21:15;5.38;;;3.03;;
72584;SDS011;60618;40.084;32.908;2022-09-09T15:23:43;5.65;;;2.90;;
72584;SDS011;60618;40.084;32.908;2022-09-09T15:26:10;7.25;;;3.10;;
72584;SDS011;60618;40.084;32.908;2022-09-09T15:28:38;6.82;;;2.67;;
72584;SDS011;60618;40.084;32.908;2022-09-09T15:33:32;4.93;;;2.38;;
72584;SDS011;60618;40.084;32.908;2022-09-09T15:35:59;5.50;;;2.40;;
72584;SDS011;60618;40.084;32.908;2022-09-09T15:38:26;6.35;;;2.50;;
72584;SDS011;60618;40.084;32.908;2022-09-09T15:40:53;6.22;;;2.65;;
72584;SDS011;60618;40.084;32.908;2022-09-09T15:43:21;5.30;;;2.50;;
72584;SDS011;60618;40.084;32.908;2022-09-09T15:45:49;6.38;;;2.40;;
72584;SDS011;60618;40.084;32.908;2022-09-09T15:48:30;6.90;;;2.60;;
72584;SDS011;60618;40.084;32.908;2022-09-09T15:51:03;19.40;;;3.40;;
72584;SDS011;60618;40.084;32.908;2022-09-09T15:53:57;14.77;;;3.00;;
72584;SDS011;60618;40.084;32.908;2022-09-09T15:56:25;9.07;;;2.60;;
72584;SDS011;60618;40.084;32.908;2022-09-09T15:58:53;9.88;;;2.80;;
72584;SDS011;60618;40.084;32.908;2022-09-09T16:01:21;9.00;;;2.90;;
72584;SDS011;60618;40.084;32.908;2022-09-09T16:03:48;11.70;;;3.08;;
72584;SDS011;60618;40.084;32.908;2022-09-09T16:06:16;12.90;;;2.90;;
72584;SDS011;60618;40.084;32.908;2022-09-09T16:08:45;13.10;;;2.97;;
72584;SDS011;60618;40.084;32.908;2022-09-09T16:11:13;15.73;;;3.17;;
72584;SDS011;60618;40.084;32.908;2022-09-09T16:13:42;12.55;;;3.00;;
72584;SDS011;60618;40.084;32.908;2022-09-09T16:16:17;16.92;;;3.30;;
72584;SDS011;60618;40.084;32.908;2022-09-09T16:18:46;14.10;;;3.08;;
72584;SDS011;60618;40.084;32.908;2022-09-09T16:21:22;9.10;;;3.20;;
72584;SDS011;60618;40.084;32.908;2022-09-09T16:23:54;9.93;;;2.67;;
72584;SDS011;60618;40.084;32.908;2022-09-09T16:26:39;11.20;;;2.90;;
72584;SDS011;60618;40.084;32.908;2022-09-09T16:29:09;9.30;;;2.85;;
72584;SDS011;60618;40.084;32.908;2022-09-09T16:31:36;13.68;;;2.95;;
72584;SDS011;60618;40.084;32.908;2022-09-09T16:34:03;11.37;;;2.90;;
72584;SDS011;60618;40.084;32.908;2022-09-09T16:36:31;10.23;;;2.63;;
72584;SDS011;60618;40.084;32.908;2022-09-09T16:39:02;14.50;;;3.13;;
72584;SDS011;60618;40.084;32.908;2022-09-09T16:41:31;10.55;;;3.00;;
72584;SDS011;60618;40.084;32.908;2022-09-09T16:44:00;8.75;;;2.63;;
72584;SDS011;60618;40.084;32.908;2022-09-09T16:46:29;11.60;;;2.70;;
72584;SDS011;60618;40.084;32.908;2022-09-09T16:48:58;9.18;;;2.88;;
72584;SDS011;60618;40.084;32.908;2022-09-09T16:51:27;9.13;;;2.70;;
72584;SDS011;60618;40.084;32.908;2022-09-09T16:53:57;8.60;;;2.65;;
72584;SDS011;60618;40.084;32.908;2022-09-09T16:56:26;11.02;;;2.80;;
72584;SDS011;60618;40.084;32.908;2022-09-09T16:58:54;9.10;;;2.73;;
72584;SDS011;60618;40.084;32.908;2022-09-09T17:01:23;11.13;;;2.80;;
72584;SDS011;60618;40.084;32.908;2022-09-09T17:03:58;7.13;;;2.70;;
72584;SDS011;60618;40.084;32.908;2022-09-09T17:06:27;10.20;;;2.90;;
72584;SDS011;60618;40.084;32.908;2022-09-09T17:08:56;8.30;;;2.70;;
72584;SDS011;60618;40.084;32.908;2022-09-09T17:11:24;6.50;;;2.50;;
72584;SDS011;60618;40.084;32.908;2022-09-09T17:13:52;9.40;;;2.75;;
72584;SDS011;60618;40.084;32.908;2022-09-09T17:16:20;6.78;;;2.55;;
72584;SDS011;60618;40.084;32.908;2022-09-09T17:18:51;6.45;;;2.60;;
72584;SDS011;60618;40.084;32.908;2022-09-09T17:21:20;9.98;;;2.88;;
72584;SDS011;60618;40.084;32.908;2022-09-09T17:23:49;9.63;;;2.93;;
72584;SDS011;60618;40.084;32.908;2022-09-09T17:26:17;5.13;;;2.47;;
72584;SDS011;60618;40.084;32.908;2022-09-09T17:28:46;6.85;;;2.50;;
72584;SDS011;60618;40.084;32.908;2022-09-09T17:31:14;7.20;;;2.60;;
72584;SDS011;60618;40.084;32.908;2022-09-09T17:33:43;6.85;;;2.97;;
72584;SDS011;60618;40.084;32.908;2022-09-09T17:36:18;7.13;;;2.90;;
72584;SDS011;60618;40.084;32.908;2022-09-09T17:38:47;8.18;;;3.17;;
72584;SDS011;60618;40.084;32.908;2022-09-09T17:41:16;9.32;;;2.80;;
72584;SDS011;60618;40.084;32.908;2022-09-09T17:43:47;5.90;;;2.40;;
72584;SDS011;60618;40.084;32.908;2022-09-09T17:46:16;5.88;;;2.67;;
72584;SDS011;60618;40.084;32.908;2022-09-09T17:48:47;5.80;;;2.50;;